Time;durP1;ratioP1;P1;durP2;ratioP2;P2;SDS_P1;SDS_P2;PMS_P1;PMS_P2;Temp;Humidity;BMP_temperature;BMP_pressure;BME280_temperature;BME280_humidity;BME280_pressure;Samples;Min_cycle;Max_cycle;Signal;HPM_P1;HPM_P2
2022/05/07 00:01:39;;;;;;;34.90;31.65;;;;;;;13.28;72.05;102248.13;5026034;28;20045;-66
2022/05/07 00:04:04;;;;;;;33.28;30.42;;;;;;;13.28;72.37;102245.50;5007777;28;20132;-67
2022/05/07 00:06:30;;;;;;;34.22;31.20;;;;;;;13.28;72.19;102247.28;5025884;28;20025;-66
2022/05/07 00:08:55;;;;;;;35.22;32.13;;;;;;;13.26;72.79;102247.41;5024517;28;20073;-66
2022/05/07 00:11:21;;;;;;;34.25;31.02;;;;;;;13.16;72.38;102248.94;5025737;28;20112;-66
2022/05/07 00:13:48;;;;;;;35.25;32.08;;;;;;;13.20;72.54;102242.59;5025709;28;20432;-65
2022/05/07 00:18:57;;;;;;;34.58;31.42;;;;;;;13.17;72.35;102237.59;5025942;28;20083;-67
2022/05/07 00:21:23;;;;;;;33.70;30.60;;;;;;;13.05;72.75;102228.03;5029118;28;20029;-67
2022/05/07 00:23:48;;;;;;;34.20;31.13;;;;;;;13.13;72.30;102230.94;5029471;28;20424;-65
2022/05/07 00:26:13;;;;;;;33.60;30.38;;;;;;;13.15;71.83;102236.88;5029213;28;20029;-66
2022/05/07 00:28:39;;;;;;;34.03;30.75;;;;;;;13.08;72.56;102222.63;5029371;28;20037;-66
2022/05/07 00:31:04;;;;;;;34.03;30.83;;;;;;;13.13;72.37;102236.16;5029192;28;20029;-65
2022/05/07 00:33:30;;;;;;;33.00;29.92;;;;;;;13.09;72.08;102234.69;5027236;28;20087;-70
2022/05/07 00:35:55;;;;;;;32.30;29.30;;;;;;;13.02;72.51;102233.47;5029412;28;20063;-66
2022/05/07 00:38:20;;;;;;;32.00;28.92;;;;;;;13.01;72.50;102227.41;5029132;28;20592;-65
2022/05/07 00:40:46;;;;;;;32.15;29.27;;;;;;;13.02;72.34;102228.25;5029272;28;20033;-65
2022/05/07 00:43:15;;;;;;;32.05;29.13;;;;;;;12.99;72.50;102228.47;5028692;28;20013;-66
2022/05/07 00:45:47;;;;;;;32.20;29.30;;;;;;;12.92;72.09;102214.19;5028440;28;20036;-66
2022/05/07 00:48:16;;;;;;;32.40;29.50;;;;;;;12.96;72.24;102228.66;5028593;28;20374;-66
2022/05/07 00:53:27;;;;;;;32.42;29.52;;;;;;;12.93;72.55;102221.91;5028261;28;20045;-65
2022/05/07 00:55:52;;;;;;;32.75;29.75;;;;;;;12.92;72.26;102217.63;5028529;28;20025;-66
2022/05/07 00:58:18;;;;;;;32.35;29.40;;;;;;;12.88;73.15;102213.56;5027980;28;20545;-65
2022/05/07 01:00:44;;;;;;;32.33;29.23;;;;;;;12.87;73.24;102217.13;5027408;28;20033;-67
2022/05/07 01:03:10;;;;;;;32.50;29.70;;;;;;;12.82;73.08;102215.78;5028318;28;20025;-66
2022/05/07 01:05:35;;;;;;;31.55;28.77;;;;;;;12.70;73.79;102202.66;5027182;28;20033;-66
2022/05/07 01:08:01;;;;;;;31.95;29.05;;;;;;;12.72;73.54;102212.97;5028942;28;20532;-66
2022/05/07 01:10:28;;;;;;;32.00;28.88;;;;;;;12.78;73.73;102212.53;5027045;28;20061;-65
2022/05/07 01:12:57;;;;;;;31.58;28.67;;;;;;;12.84;73.45;102219.09;5028318;28;20065;-66
2022/05/07 01:15:24;;;;;;;33.22;30.20;;;;;;;12.86;73.67;102217.22;5027878;28;20065;-66
2022/05/07 01:17:50;;;;;;;32.90;29.92;;;;;;;12.85;73.96;102210.38;5028876;28;20551;-65
2022/05/07 01:20:16;;;;;;;33.00;30.10;;;;;;;12.88;74.25;102215.34;5028250;28;20539;-66
2022/05/07 01:22:42;;;;;;;33.80;30.90;;;;;;;12.71;74.94;102212.13;5028374;28;20040;-66
2022/05/07 01:25:07;;;;;;;33.70;30.70;;;;;;;12.76;74.43;102207.44;5027708;28;20030;-66
2022/05/07 01:27:33;;;;;;;34.78;31.55;;;;;;;12.81;74.16;102208.91;5027784;28;20381;-67
2022/05/07 01:29:58;;;;;;;33.40;30.30;;;;;;;12.70;75.11;102207.84;5027109;28;20091;-67
2022/05/07 01:32:24;;;;;;;33.92;30.83;;;;;;;12.53;74.35;102195.16;5027902;28;20037;-65
2022/05/07 01:34:51;;;;;;;33.70;30.70;;;;;;;12.61;74.97;102211.06;5026140;28;20022;-66
2022/05/07 01:37:17;;;;;;;33.07;30.07;;;;;;;12.59;74.35;102199.94;5027305;28;20029;-66
2022/05/07 01:39:42;;;;;;;34.25;30.95;;;;;;;12.54;74.74;102202.03;5028181;28;20056;-66
2022/05/07 01:42:08;;;;;;;34.33;31.13;;;;;;;12.55;74.95;102198.47;5027608;28;20496;-67
2022/05/07 01:44:33;;;;;;;33.50;30.60;;;;;;;12.58;74.99;102198.28;5028041;28;20034;-66
2022/05/07 01:49:43;;;;;;;33.65;30.65;;;;;;;12.65;74.65;102189.13;5023605;28;20056;-66
2022/05/07 01:52:08;;;;;;;33.00;29.90;;;;;;;12.65;74.62;102191.72;5027897;28;20029;-65
2022/05/07 01:54:33;;;;;;;33.47;30.45;;;;;;;12.71;74.82;102199.09;5027546;28;20022;-66
2022/05/07 01:56:59;;;;;;;34.25;31.10;;;;;;;12.69;74.70;102193.19;5027380;28;20555;-66
2022/05/07 01:59:24;;;;;;;34.08;30.92;;;;;;;12.71;74.23;102193.91;5027283;28;20373;-66
2022/05/07 02:01:49;;;;;;;33.70;30.70;;;;;;;12.66;75.14;102184.75;5027956;28;20029;-66
2022/05/07 02:04:15;;;;;;;34.00;31.10;;;;;;;12.61;74.74;102187.66;5027649;28;20493;-66
2022/05/07 02:06:40;;;;;;;33.58;30.52;;;;;;;12.54;75.54;102176.00;5026918;28;20497;-66
2022/05/07 02:09:05;;;;;;;33.97;30.77;;;;;;;12.48;75.10;102184.22;5025773;28;20473;-66
2022/05/07 02:11:30;;;;;;;33.35;30.35;;;;;;;12.50;75.49;102179.75;5027065;28;20029;-69
2022/05/07 02:13:56;;;;;;;32.78;29.88;;;;;;;12.40;75.49;102184.75;5027546;28;20026;-66
2022/05/07 02:16:21;;;;;;;32.70;29.67;;;;;;;12.40;75.60;102179.56;5026852;28;20347;-67
2022/05/07 02:18:46;;;;;;;31.70;28.70;;;;;;;12.43;75.98;102175.91;5027430;28;20068;-66
2022/05/07 02:21:12;;;;;;;30.90;28.00;;;;;;;12.46;76.20;102175.72;5027018;28;20112;-66
2022/05/07 02:23:37;;;;;;;30.08;27.13;;;;;;;12.35;75.25;102165.19;5027229;28;20109;-67
2022/05/07 02:26:02;;;;;;;31.05;28.17;;;;;;;12.47;75.75;102169.56;5026768;28;20067;-66
2022/05/07 02:28:28;;;;;;;30.33;27.42;;;;;;;12.45;76.33;102176.66;5019001;28;20025;-69
2022/05/07 02:30:53;;;;;;;32.30;29.30;;;;;;;12.25;76.63;102169.34;5025737;28;20049;-66
2022/05/07 02:33:18;;;;;;;30.75;27.95;;;;;;;12.32;76.50;102170.59;5026659;28;20108;-66
2022/05/07 02:35:44;;;;;;;31.73;28.83;;;;;;;12.31;76.79;102174.13;5027333;28;20096;-66
2022/05/07 02:38:09;;;;;;;31.30;28.10;;;;;;;12.25;76.44;102169.34;5026192;28;20405;-66
2022/05/07 02:42:33;;;;;;;32.00;28.98;;;;;;;12.10;76.33;102156.44;5025477;28;20138;-67
2022/05/07 02:43:20;;;;;;;30.17;27.48;;;;;;;12.20;76.54;102161.84;5026219;28;20044;-66
2022/05/07 02:45:45;;;;;;;30.20;27.25;;;;;;;12.23;76.30;102167.69;5026933;28;20714;-65
2022/05/07 02:48:11;;;;;;;29.70;26.90;;;;;;;12.24;76.64;102160.72;5026349;28;20040;-66
2022/05/07 02:50:36;;;;;;;30.27;27.42;;;;;;;12.31;76.64;102166.31;5027119;28;20075;-66
2022/05/07 02:53:01;;;;;;;29.38;26.58;;;;;;;12.29;76.80;102161.22;5026176;28;20037;-66
2022/05/07 02:55:27;;;;;;;29.27;26.55;;;;;;;12.29;76.86;102170.81;5026955;28;20378;-66
2022/05/07 02:57:52;;;;;;;30.00;27.23;;;;;;;12.15;76.89;102169.94;5026686;28;20460;-67
2022/05/07 03:00:17;;;;;;;30.23;27.33;;;;;;;12.20;76.37;102162.66;5025605;28;20461;-65
2022/05/07 03:02:43;;;;;;;30.20;27.40;;;;;;;12.17;76.58;102173.28;5026801;28;20479;-66
2022/05/07 03:05:08;;;;;;;30.73;27.92;;;;;;;12.14;77.03;102170.88;5026586;28;20036;-67
2022/05/07 03:07:33;;;;;;;29.45;26.65;;;;;;;12.15;77.54;102175.16;5024554;28;20037;-67
2022/05/07 03:09:59;;;;;;;29.70;26.90;;;;;;;12.12;77.07;102164.97;5026023;28;20495;-66
2022/05/07 03:12:24;;;;;;;28.98;26.25;;;;;;;12.07;77.30;102161.84;5025916;28;20056;-65
2022/05/07 03:14:50;;;;;;;29.55;26.77;;;;;;;12.05;77.58;102171.50;5026291;28;20305;-68
2022/05/07 03:17:16;;;;;;;30.27;27.38;;;;;;;12.02;77.47;102157.88;5025769;28;20033;-67
2022/05/07 03:19:42;;;;;;;30.15;27.27;;;;;;;11.93;77.58;102154.13;5026701;28;20029;-66
2022/05/07 03:22:07;;;;;;;31.08;28.17;;;;;;;12.05;77.60;102163.72;5026306;28;20029;-66
2022/05/07 03:24:37;;;;;;;30.25;27.50;;;;;;;11.94;77.99;102161.00;5026458;28;20446;-65
2022/05/07 03:27:04;;;;;;;30.40;27.55;;;;;;;11.90;77.72;102169.91;5025392;28;20029;-65
2022/05/07 03:29:29;;;;;;;31.48;28.48;;;;;;;11.89;78.08;102163.88;5026523;28;20048;-65
2022/05/07 03:31:54;;;;;;;30.33;27.45;;;;;;;11.83;78.08;102163.47;5026569;28;20025;-66
2022/05/07 03:34:20;;;;;;;30.95;28.05;;;;;;;11.78;77.90;102163.72;5026505;28;20064;-68
2022/05/07 03:36:45;;;;;;;31.08;28.17;;;;;;;11.84;78.19;102165.94;5025837;28;20133;-65
2022/05/07 03:39:14;;;;;;;30.83;27.83;;;;;;;11.88;78.02;102164.81;5026280;28;20025;-66
2022/05/07 03:41:39;;;;;;;31.00;28.15;;;;;;;11.87;78.15;102172.72;5025853;28;20481;-66
2022/05/07 03:44:05;;;;;;;30.08;27.17;;;;;;;11.92;78.10;102163.66;5025496;28;20030;-65
2022/05/07 03:46:30;;;;;;;31.27;28.38;;;;;;;11.89;78.08;102163.06;5026120;28;20088;-66
2022/05/07 03:48:55;;;;;;;32.08;28.92;;;;;;;11.90;78.21;102175.13;5026506;28;20473;-66
2022/05/07 03:51:21;;;;;;;30.33;27.38;;;;;;;11.87;77.74;102167.50;5026263;28;20057;-66
2022/05/07 03:53:46;;;;;;;30.33;27.63;;;;;;;11.84;77.98;102172.91;5025505;28;20064;-65
2022/05/07 03:56:12;;;;;;;31.17;28.17;;;;;;;11.87;78.65;102159.72;5029425;28;20026;-66
2022/05/07 03:58:38;;;;;;;30.30;27.45;;;;;;;11.89;78.73;102168.25;5029726;28;20026;-65
2022/05/07 04:01:03;;;;;;;30.42;27.73;;;;;;;11.88;77.92;102166.59;5029824;28;20577;-66
2022/05/07 04:03:30;;;;;;;31.42;28.48;;;;;;;11.89;77.53;102168.25;5026473;28;20023;-66
2022/05/07 04:05:56;;;;;;;31.10;28.25;;;;;;;11.93;77.29;102167.13;5029472;28;20533;-67
2022/05/07 04:08:23;;;;;;;32.03;28.80;;;;;;;11.86;78.09;102165.84;5029516;28;20133;-67
2022/05/07 04:10:48;;;;;;;31.33;28.33;;;;;;;11.87;78.11;102165.75;5028353;28;20168;-65
2022/05/07 04:13:15;;;;;;;31.58;28.77;;;;;;;11.84;78.19;102175.53;5028963;28;20573;-66
2022/05/07 04:15:43;;;;;;;32.75;29.55;;;;;;;11.87;78.17;102177.91;5029205;28;20033;-66
2022/05/07 04:18:09;;;;;;;30.75;27.85;;;;;;;11.84;78.51;102181.56;5029191;28;20076;-65
2022/05/07 04:20:35;;;;;;;31.60;28.55;;;;;;;11.74;78.77;102180.44;5029576;28;20095;-67
2022/05/07 04:23:01;;;;;;;33.28;29.98;;;;;;;11.72;79.30;102181.50;5028915;28;20026;-68
2022/05/07 04:25:26;;;;;;;32.50;29.40;;;;;;;11.78;78.83;102176.72;5027400;28;20037;-66
2022/05/07 04:27:53;;;;;;;33.10;29.85;;;;;;;11.80;79.38;102190.44;5029482;28;20033;-67
2022/05/07 04:30:19;;;;;;;32.13;29.00;;;;;;;11.81;79.93;102191.28;5029298;28;20029;-65
2022/05/07 04:32:44;;;;;;;32.42;29.05;;;;;;;11.84;80.21;102185.91;5029013;28;20032;-67
2022/05/07 04:35:10;;;;;;;32.95;29.80;;;;;;;11.87;79.24;102185.69;5027553;28;20436;-66
2022/05/07 04:37:35;;;;;;;32.33;29.30;;;;;;;11.90;79.83;102190.72;5029062;28;20056;-65
2022/05/07 04:40:00;;;;;;;32.50;29.40;;;;;;;11.89;80.18;102183.84;5027389;28;20489;-67
2022/05/07 04:42:26;;;;;;;31.45;28.55;;;;;;;11.93;79.15;102183.56;5028702;28;20547;-66
2022/05/07 04:44:51;;;;;;;33.15;30.05;;;;;;;11.93;79.18;102175.75;5029572;28;20576;-66
2022/05/07 04:47:17;;;;;;;32.00;28.85;;;;;;;11.94;79.86;102193.03;5028884;28;20511;-66
2022/05/07 04:49:42;;;;;;;32.15;29.33;;;;;;;11.95;79.72;102191.25;5029396;28;20038;-65
2022/05/07 04:52:08;;;;;;;32.50;29.38;;;;;;;11.98;79.73;102188.44;5027269;28;20029;-66
2022/05/07 04:54:34;;;;;;;32.50;29.60;;;;;;;12.03;79.54;102195.94;5027058;28;20485;-65
2022/05/07 04:57:00;;;;;;;33.72;30.52;;;;;;;12.11;79.98;102199.72;5027711;28;20036;-67
2022/05/07 04:59:26;;;;;;;32.92;29.92;;;;;;;12.14;79.99;102191.69;5028719;28;20366;-66
2022/05/07 05:01:51;;;;;;;33.13;30.02;;;;;;;12.10;79.54;102182.44;5027541;28;20561;-68
2022/05/07 05:04:17;;;;;;;33.00;29.98;;;;;;;12.12;80.27;102195.34;5027990;28;20121;-66
2022/05/07 05:06:43;;;;;;;32.47;29.50;;;;;;;12.19;79.38;102191.41;5028034;28;20037;-66
2022/05/07 05:09:09;;;;;;;32.33;29.33;;;;;;;12.23;79.72;102200.66;5028483;28;20025;-66
2022/05/07 05:11:35;;;;;;;33.13;29.90;;;;;;;12.27;79.41;102203.88;5028542;28;20060;-66
2022/05/07 05:14:00;;;;;;;36.35;32.75;;;;;;;12.15;80.07;102195.97;5028403;28;20425;-66
2022/05/07 05:16:27;;;;;;;37.65;33.90;;;;;;;12.27;79.09;102209.09;5028862;28;20469;-65
2022/05/07 05:18:52;;;;;;;38.90;34.70;;;;;;;12.28;78.58;102211.59;5028541;28;20026;-65
2022/05/07 05:21:18;;;;;;;36.90;33.13;;;;;;;12.33;78.67;102208.66;5027851;28;20025;-66
2022/05/07 05:23:46;;;;;;;39.50;34.75;;;;;;;12.30;78.93;102208.88;5028355;28;20025;-67
2022/05/07 05:26:12;;;;;;;37.17;33.50;;;;;;;12.33;78.93;102213.88;5026175;28;20032;-66
2022/05/07 05:28:39;;;;;;;39.22;35.33;;;;;;;12.30;78.99;102219.31;5028509;28;20048;-66
2022/05/07 05:31:05;;;;;;;40.47;36.05;;;;;;;12.25;79.14;102222.19;5028326;28;20052;-67
2022/05/07 05:33:30;;;;;;;40.55;36.35;;;;;;;12.29;79.48;102233.25;5027960;28;20465;-66
2022/05/07 05:35:56;;;;;;;41.75;37.20;;;;;;;12.33;79.30;102245.09;5028218;28;20037;-67
2022/05/07 05:38:21;;;;;;;43.15;37.50;;;;;;;12.31;79.08;102241.78;5027764;28;20033;-65
2022/05/07 05:40:46;;;;;;;43.33;39.10;;;;;;;12.31;78.41;102241.78;5028245;28;20025;-66
2022/05/07 05:43:12;;;;;;;44.67;39.65;;;;;;;12.38;78.46;102237.81;5027494;28;20022;-67
2022/05/07 05:45:37;;;;;;;43.35;38.97;;;;;;;12.39;78.40;102239.50;5027914;28;20497;-66
2022/05/07 05:48:04;;;;;;;44.05;38.97;;;;;;;12.31;79.23;102242.59;5027630;28;20040;-66
2022/05/07 05:50:30;;;;;;;41.78;37.47;;;;;;;12.40;79.14;102230.75;5027369;28;20067;-68
2022/05/07 05:52:56;;;;;;;43.08;38.67;;;;;;;12.48;78.45;102238.88;5027594;28;20549;-66
2022/05/07 05:55:21;;;;;;;42.88;38.67;;;;;;;12.46;79.62;102240.75;5027332;28;20379;-66
2022/05/07 05:57:47;;;;;;;43.00;38.40;;;;;;;12.49;79.72;102241.38;5027321;28;20026;-65
2022/05/07 06:00:13;;;;;;;41.05;36.85;;;;;;;12.57;79.15;102248.69;5027714;28;20444;-65
2022/05/07 06:02:38;;;;;;;42.40;38.40;;;;;;;12.55;78.81;102250.53;5027282;28;20049;-66
2022/05/07 06:05:04;;;;;;;42.33;38.30;;;;;;;12.59;79.48;102252.00;5027492;28;20022;-66
2022/05/07 06:07:29;;;;;;;42.15;38.10;;;;;;;12.64;79.29;102246.50;5027531;28;20029;-66
2022/05/07 06:09:55;;;;;;;41.95;38.15;;;;;;;12.74;79.26;102250.97;5027374;28;20033;-66
2022/05/07 06:12:21;;;;;;;41.35;37.45;;;;;;;12.75;79.65;102247.44;5019948;28;20065;-66
2022/05/07 06:14:47;;;;;;;40.67;37.00;;;;;;;12.81;79.52;102242.75;5007673;28;20025;-66
2022/05/07 06:17:13;;;;;;;37.17;33.85;;;;;;;12.87;79.18;102250.13;5014587;28;20163;-67
2022/05/07 06:19:38;;;;;;;39.60;36.00;;;;;;;12.92;79.12;102248.88;5021393;28;20361;-65
2022/05/07 06:22:03;;;;;;;37.00;33.63;;;;;;;13.04;78.68;102252.41;5027453;28;20404;-66
2022/05/07 06:27:28;;;;;;;35.05;31.67;;;;;;;13.17;77.39;102248.00;5026708;28;20088;-66
2022/05/07 06:29:53;;;;;;;32.35;29.23;;;;;;;13.19;77.44;102256.56;5023409;28;20033;-66
2022/05/07 06:32:19;;;;;;;31.75;28.67;;;;;;;13.21;77.37;102248.66;5011285;28;20409;-66
2022/05/07 06:34:44;;;;;;;31.75;28.52;;;;;;;13.25;77.13;102255.34;5012135;28;20462;-66
2022/05/07 06:37:09;;;;;;;31.20;28.23;;;;;;;13.30;76.54;102242.78;5024303;28;20060;-65
2022/05/07 06:39:35;;;;;;;28.92;25.88;;;;;;;13.31;76.81;102254.06;5026954;28;20022;-66
2022/05/07 06:42:00;;;;;;;30.75;27.52;;;;;;;13.26;76.52;102242.19;5027262;28;20132;-66
2022/05/07 06:44:25;;;;;;;30.55;27.52;;;;;;;13.36;76.23;102251.94;5026905;28;20030;-65
2022/05/07 06:46:51;;;;;;;31.58;28.35;;;;;;;13.39;77.34;102262.19;5027077;28;20461;-66
2022/05/07 06:49:17;;;;;;;31.77;27.83;;;;;;;13.41;77.78;102244.66;5025953;28;20052;-65
2022/05/07 06:51:43;;;;;;;31.92;28.65;;;;;;;13.56;77.39;102254.00;5014450;28;20100;-65
2022/05/07 06:54:08;;;;;;;28.33;25.40;;;;;;;13.64;76.73;102251.66;5026757;28;20113;-65
2022/05/07 06:56:33;;;;;;;27.23;24.40;;;;;;;13.75;76.71;102249.09;5026998;28;20041;-66
2022/05/07 06:58:59;;;;;;;28.88;24.63;;;;;;;13.82;76.06;102249.53;5022992;28;20417;-65
2022/05/07 07:01:25;;;;;;;28.13;25.10;;;;;;;13.89;76.49;102249.91;5022760;28;20044;-64
2022/05/07 07:03:50;;;;;;;29.35;23.05;;;;;;;13.95;76.37;102249.47;5026423;28;20029;-66
2022/05/07 07:06:15;;;;;;;30.75;23.38;;;;;;;13.90;75.23;102251.56;5026434;28;20037;-66
2022/05/07 07:08:42;;;;;;;27.25;24.30;;;;;;;14.14;75.33;102249.75;5021603;28;20065;-67
2022/05/07 07:11:07;;;;;;;28.17;23.00;;;;;;;14.18;75.20;102245.16;5026527;28;20033;-69
2022/05/07 07:13:32;;;;;;;28.92;22.45;;;;;;;14.28;74.99;102246.97;5020970;28;20096;-65
2022/05/07 07:15:58;;;;;;;26.27;22.13;;;;;;;14.31;73.52;102244.13;5010677;28;20032;-65
2022/05/07 07:18:23;;;;;;;28.73;22.35;;;;;;;14.28;73.73;102246.97;5008558;28;20030;-65
2022/05/07 07:20:49;;;;;;;27.17;21.70;;;;;;;14.40;73.19;102257.44;5006137;28;20022;-65
2022/05/07 07:23:14;;;;;;;28.88;22.70;;;;;;;14.44;73.49;102258.84;4999513;28;20317;-68
2022/05/07 07:25:41;;;;;;;30.73;22.83;;;;;;;14.44;73.90;102256.25;5017386;28;20029;-69
2022/05/07 07:28:08;;;;;;;28.38;21.88;;;;;;;14.56;73.09;102252.72;5026205;28;20056;-65
2022/05/07 07:30:33;;;;;;;27.55;21.92;;;;;;;14.66;73.39;102251.09;5029973;28;20230;-65
2022/05/07 07:32:59;;;;;;;29.90;23.15;;;;;;;14.69;72.63;102245.66;5029916;28;20026;-66
2022/05/07 07:35:24;;;;;;;28.63;21.75;;;;;;;14.81;72.55;102249.94;5029729;28;20033;-67
2022/05/07 07:37:50;;;;;;;29.20;23.08;;;;;;;14.95;72.93;102251.47;5030138;28;20072;-66
2022/05/07 07:40:15;;;;;;;31.13;22.58;;;;;;;15.05;72.60;102251.59;5029941;28;20060;-69
2022/05/07 07:42:41;;;;;;;27.63;22.65;;;;;;;15.01;71.14;102260.63;5028635;28;20048;-65
2022/05/07 07:47:57;;;;;;;30.42;22.42;;;;;;;15.23;71.11;102255.38;5029704;28;20037;-66
2022/05/07 07:50:23;;;;;;;26.38;21.48;;;;;;;15.46;71.15;102255.34;5029675;28;20466;-65
2022/05/07 07:53:00;;;;;;;25.60;21.55;;;;;;;15.64;72.02;102259.97;5029656;28;20114;-68
2022/05/07 07:55:26;;;;;;;26.83;21.67;;;;;;;15.75;71.10;102256.47;5029088;28;20057;-65
2022/05/07 07:57:56;;;;;;;27.90;21.55;;;;;;;15.78;70.36;102264.09;5029695;28;20171;-65
2022/05/07 08:00:22;;;;;;;26.23;22.42;;;;;;;15.81;70.40;102266.44;5027514;28;20044;-65
2022/05/07 08:02:49;;;;;;;26.75;21.75;;;;;;;15.81;70.51;102249.94;5029489;28;20025;-66
2022/05/07 08:05:17;;;;;;;27.67;22.00;;;;;;;15.92;70.62;102253.34;5029591;28;20101;-69
2022/05/07 08:13:10;;;;;;;28.20;21.38;;;;;;;15.90;68.83;102257.88;5028879;28;20402;-67
2022/05/07 08:15:35;;;;;;;26.13;21.45;;;;;;;16.01;69.34;102266.63;5020461;28;20029;-65
2022/05/07 08:18:01;;;;;;;29.40;21.25;;;;;;;16.04;69.54;102255.91;5013701;28;20083;-65
2022/05/07 08:20:26;;;;;;;29.88;21.95;;;;;;;16.10;68.65;102255.41;5023107;28;20141;-66
2022/05/07 08:22:51;;;;;;;29.20;21.25;;;;;;;16.32;70.32;102255.28;5009503;28;20061;-65
2022/05/07 08:25:17;;;;;;;33.13;21.65;;;;;;;16.43;68.57;102262.25;5013747;28;20374;-66
2022/05/07 08:27:42;;;;;;;27.73;21.25;;;;;;;16.47;67.28;102263.66;5013309;28;20108;-66
2022/05/07 08:30:08;;;;;;;28.75;21.55;;;;;;;16.62;68.63;102274.63;5028762;28;20118;-66
2022/05/07 08:32:33;;;;;;;32.78;23.30;;;;;;;16.64;68.40;102254.38;5028620;28;20116;-65
2022/05/07 08:34:59;;;;;;;29.63;22.70;;;;;;;16.79;66.90;102258.34;5029167;28;20036;-68
2022/05/07 08:37:24;;;;;;;34.55;23.15;;;;;;;16.79;67.51;102258.34;5029111;28;20051;-64
2022/05/07 08:39:49;;;;;;;30.08;22.92;;;;;;;16.83;66.78;102264.97;5028699;28;20033;-64
2022/05/07 08:42:15;;;;;;;28.50;22.42;;;;;;;16.89;67.06;102269.69;5010710;28;20036;-66
2022/05/07 08:44:41;;;;;;;30.80;22.45;;;;;;;16.96;66.86;102260.34;5009160;28;20040;-64
2022/05/07 08:47:06;;;;;;;27.35;22.98;;;;;;;17.00;65.67;102271.41;5023886;28;20033;-63
2022/05/07 08:49:31;;;;;;;30.50;22.55;;;;;;;17.09;66.00;102272.38;5027407;28;20478;-64
2022/05/07 08:51:58;;;;;;;27.33;22.40;;;;;;;17.18;64.53;102276.84;5028561;28;20029;-68
2022/05/07 08:54:23;;;;;;;30.05;23.52;;;;;;;17.37;66.36;102279.53;5024766;28;20069;-65
2022/05/07 08:56:48;;;;;;;29.90;23.55;;;;;;;17.36;64.35;102272.63;5015711;28;20057;-64
2022/05/07 08:59:14;;;;;;;29.20;24.13;;;;;;;17.40;64.93;102268.78;5014803;28;20127;-65
2022/05/07 09:01:42;;;;;;;30.65;23.52;;;;;;;17.47;64.31;102269.88;5009141;28;20844;-65
2022/05/07 09:04:09;;;;;;;31.23;24.42;;;;;;;17.61;65.08;102275.72;5028254;28;20025;-67
2022/05/07 09:06:36;;;;;;;29.20;23.05;;;;;;;17.76;65.03;102271.75;5027805;28;20030;-65
2022/05/07 09:09:05;;;;;;;26.15;21.13;;;;;;;17.78;64.21;102267.22;5014204;28;20467;-65
2022/05/07 09:11:42;;;;;;;26.25;20.55;;;;;;;17.96;63.29;102278.69;5015973;28;20035;-64
2022/05/07 09:14:08;;;;;;;27.45;22.13;;;;;;;17.84;62.82;102271.91;5025091;28;20038;-65
2022/05/07 09:16:42;;;;;;;28.80;21.77;;;;;;;17.95;62.89;102279.66;5011030;28;20031;-66
2022/05/07 09:19:25;;;;;;;28.83;21.02;;;;;;;18.07;63.72;102271.66;5008149;28;20398;-66
2022/05/07 09:21:54;;;;;;;25.42;20.45;;;;;;;18.03;61.33;102271.09;5017534;28;20033;-65
2022/05/07 09:24:21;;;;;;;;;;;;;;;18.18;62.15;102279.34;5027163;28;20060;-66
2022/05/07 09:26:47;;;;;;;23.27;17.30;;;;;;;18.07;60.61;102261.16;5023562;28;19939;-67
2022/05/07 09:29:14;;;;;;;21.35;16.20;;;;;;;18.13;59.25;102268.47;5007901;28;20493;-64
2022/05/07 09:31:43;;;;;;;24.90;19.40;;;;;;;18.15;59.34;102263.91;5015066;28;20033;-67
2022/05/07 09:37:01;;;;;;;23.80;18.48;;;;;;;18.33;59.98;102262.19;5028167;28;20516;-65
2022/05/07 09:39:33;;;;;;;22.30;17.08;;;;;;;18.43;60.45;102268.28;5028035;28;20032;-66
2022/05/07 09:42:01;;;;;;;25.48;18.60;;;;;;;18.64;61.65;102275.13;5027729;28;20033;-65
2022/05/07 09:44:28;;;;;;;24.43;17.83;;;;;;;18.63;59.48;102262.97;5027429;28;20371;-65
2022/05/07 09:46:57;;;;;;;24.15;17.95;;;;;;;18.58;58.88;102264.25;5028205;28;20290;-67
2022/05/07 09:49:25;;;;;;;22.77;17.95;;;;;;;18.64;58.57;102275.13;5027945;28;20795;-66
2022/05/07 09:51:50;;;;;;;20.85;15.63;;;;;;;18.79;58.79;102268.47;5026573;28;20029;-66
2022/05/07 09:59:45;;;;;;;20.83;15.80;;;;;;;18.97;57.53;102277.25;5028211;28;20048;-65
2022/05/07 10:02:26;;;;;;;20.15;16.58;;;;;;;18.96;57.97;102275.63;5027436;28;20048;-65
2022/05/07 10:04:57;;;;;;;20.00;15.77;;;;;;;19.18;57.97;102273.59;5020110;28;20048;-67
2022/05/07 10:07:45;;;;;;;20.27;15.50;;;;;;;19.33;58.21;102274.75;5006973;28;20033;-65
2022/05/07 10:10:40;;;;;;;20.00;17.02;;;;;;;19.38;57.46;102275.13;5007424;28;20482;-65
2022/05/07 10:13:06;;;;;;;20.27;16.77;;;;;;;19.40;56.20;102273.19;4998125;28;20099;-66
2022/05/07 10:15:32;;;;;;;21.70;17.92;;;;;;;19.52;57.09;102277.25;5026980;28;20031;-67
2022/05/07 10:18:02;;;;;;;24.08;18.42;;;;;;;19.66;57.41;102267.22;5027445;28;20041;-67
2022/05/07 10:20:45;;;;;;;24.35;18.75;;;;;;;19.60;57.86;102266.84;5026013;28;20029;-68
2022/05/07 10:23:12;;;;;;;22.38;18.30;;;;;;;19.78;57.87;102268.66;5027128;28;20026;-67
2022/05/07 10:25:39;;;;;;;22.70;18.70;;;;;;;19.72;56.77;102271.88;5026691;28;20116;-67
2022/05/07 10:28:12;;;;;;;21.98;17.83;;;;;;;19.73;55.64;102268.31;5026595;28;20021;-67
2022/05/07 10:30:57;;;;;;;21.90;18.40;;;;;;;19.87;56.96;102270.41;5027166;28;20473;-68
2022/05/07 10:33:22;;;;;;;21.30;18.15;;;;;;;20.27;57.33;102266.44;5014696;28;20030;-65
2022/05/07 10:35:53;;;;;;;23.20;19.17;;;;;;;20.08;55.66;102265.66;5027081;28;20036;-65
2022/05/07 10:38:32;;;;;;;23.48;18.50;;;;;;;19.97;56.08;102268.53;5026451;28;20055;-66
2022/05/07 10:40:59;;;;;;;20.95;17.35;;;;;;;20.22;55.35;102273.97;5026311;28;20052;-67
2022/05/07 10:43:36;;;;;;;19.60;16.30;;;;;;;20.28;56.45;102258.38;5027013;28;20056;-65
2022/05/07 10:46:06;;;;;;;23.35;17.90;;;;;;;20.62;58.33;102260.28;5027034;28;20038;-68
2022/05/07 10:48:56;;;;;;;18.15;15.63;;;;;;;20.76;55.89;102258.84;5026459;28;20030;-67
2022/05/07 10:51:27;;;;;;;20.33;17.08;;;;;;;20.64;53.54;102250.38;5026270;28;20037;-65
2022/05/07 10:53:57;;;;;;;20.65;16.83;;;;;;;20.92;55.12;102251.03;5024306;28;20033;-65
2022/05/07 10:56:23;;;;;;;18.75;16.38;;;;;;;20.84;53.77;102251.00;5025590;28;20397;-66
2022/05/07 10:58:51;;;;;;;19.45;15.43;;;;;;;20.90;53.85;102253.00;5026370;28;20029;-66
2022/05/07 11:01:19;;;;;;;18.95;15.90;;;;;;;20.69;51.64;102254.22;5026485;28;20033;-65
2022/05/07 11:03:46;;;;;;;19.33;15.35;;;;;;;20.84;55.41;102237.81;5025939;28;20024;-65
2022/05/07 11:06:11;;;;;;;17.70;15.45;;;;;;;20.84;52.78;102243.09;5025053;28;20029;-65
2022/05/07 11:08:52;;;;;;;22.17;15.85;;;;;;;20.85;52.51;102252.66;5026316;28;20025;-69
2022/05/07 11:11:18;;;;;;;16.45;14.30;;;;;;;20.84;52.94;102248.34;5024002;28;20627;-67
2022/05/07 11:13:45;;;;;;;17.52;15.05;;;;;;;20.79;53.35;102240.09;5026389;28;20482;-65
2022/05/07 11:16:11;;;;;;;20.08;15.18;;;;;;;20.67;53.49;102232.47;5026571;28;20029;-65
2022/05/07 11:18:40;;;;;;;21.15;16.30;;;;;;;20.68;51.52;102249.94;5025944;28;20035;-70
2022/05/07 11:21:05;;;;;;;19.40;14.65;;;;;;;20.77;52.01;102247.34;5026023;28;20112;-70
2022/05/07 11:23:45;;;;;;;17.13;13.43;;;;;;;20.81;53.23;102243.38;5025883;28;20108;-66
2022/05/07 11:26:16;;;;;;;16.80;13.32;;;;;;;20.77;54.29;102242.91;5025199;28;20021;-65
2022/05/07 11:28:43;;;;;;;17.17;13.10;;;;;;;20.81;54.42;102232.84;5026024;28;20116;-68
2022/05/07 11:31:10;;;;;;;16.45;12.82;;;;;;;20.87;51.16;102234.84;5026101;28;20204;-66
2022/05/07 11:33:35;;;;;;;14.98;11.82;;;;;;;21.13;51.20;102232.97;5026178;28;20036;-68
2022/05/07 11:36:06;;;;;;;15.02;11.93;;;;;;;21.26;52.06;102244.88;5019684;28;20026;-67